sensor_id;sensor_type;location;lat;lon;timestamp;temperature;humidity
15111;DHT22;7656;51.954;7.998;2022-11-20T00:02:45;-2.10;99.90
15111;DHT22;7656;51.954;7.998;2022-11-20T00:07:06;-1.90;99.90
15111;DHT22;7656;51.954;7.998;2022-11-20T00:11:28;-1.80;99.90
15111;DHT22;7656;51.954;7.998;2022-11-20T00:15:57;-1.80;99.90
15111;DHT22;7656;51.954;7.998;2022-11-20T00:20:19;-1.70;99.90
15111;DHT22;7656;51.954;7.998;2022-11-20T00:24:40;-1.70;99.90
15111;DHT22;7656;51.954;7.998;2022-11-20T00:29:02;-1.80;99.90
15111;DHT22;7656;51.954;7.998;2022-11-20T00:33:23;-1.90;99.90
15111;DHT22;7656;51.954;7.998;2022-11-20T00:37:45;-1.90;99.90
15111;DHT22;7656;51.954;7.998;2022-11-20T00:42:06;-1.90;99.90
15111;DHT22;7656;51.954;7.998;2022-11-20T00:46:28;-2.00;99.90
15111;DHT22;7656;51.954;7.998;2022-11-20T00:50:49;-2.10;99.90
15111;DHT22;7656;51.954;7.998;2022-11-20T00:55:10;-2.10;99.90
15111;DHT22;7656;51.954;7.998;2022-11-20T00:59:31;-2.00;99.90
15111;DHT22;7656;51.954;7.998;2022-11-20T01:03:55;-2.10;99.90
15111;DHT22;7656;51.954;7.998;2022-11-20T01:08:18;-2.00;99.90
15111;DHT22;7656;51.954;7.998;2022-11-20T01:12:39;-2.10;99.90
15111;DHT22;7656;51.954;7.998;2022-11-20T01:17:00;-2.30;99.90
15111;DHT22;7656;51.954;7.998;2022-11-20T01:21:29;-2.20;99.90
15111;DHT22;7656;51.954;7.998;2022-11-20T01:25:54;-2.00;99.90
15111;DHT22;7656;51.954;7.998;2022-11-20T01:30:15;-2.00;99.90
15111;DHT22;7656;51.954;7.998;2022-11-20T01:34:36;-2.50;99.90
15111;DHT22;7656;51.954;7.998;2022-11-20T01:39:00;-2.50;99.90
15111;DHT22;7656;51.954;7.998;2022-11-20T01:43:24;-2.40;99.90
15111;DHT22;7656;51.954;7.998;2022-11-20T01:47:46;-2.30;99.90
15111;DHT22;7656;51.954;7.998;2022-11-20T01:52:23;-2.30;99.90
15111;DHT22;7656;51.954;7.998;2022-11-20T01:57:07;-2.30;99.90
15111;DHT22;7656;51.954;7.998;2022-11-20T02:01:31;-2.30;99.90
15111;DHT22;7656;51.954;7.998;2022-11-20T02:10:47;-2.40;99.90
15111;DHT22;7656;51.954;7.998;2022-11-20T02:15:08;-2.60;99.90
15111;DHT22;7656;51.954;7.998;2022-11-20T02:19:31;-2.50;99.90
15111;DHT22;7656;51.954;7.998;2022-11-20T02:24:03;-2.50;99.90
15111;DHT22;7656;51.954;7.998;2022-11-20T02:28:26;-2.50;99.90
15111;DHT22;7656;51.954;7.998;2022-11-20T02:32:47;-2.50;99.90
15111;DHT22;7656;51.954;7.998;2022-11-20T02:37:09;-2.60;99.90
15111;DHT22;7656;51.954;7.998;2022-11-20T02:41:35;-2.60;99.90
15111;DHT22;7656;51.954;7.998;2022-11-20T02:45:58;-2.70;99.90
15111;DHT22;7656;51.954;7.998;2022-11-20T02:50:19;-2.80;99.90
15111;DHT22;7656;51.954;7.998;2022-11-20T02:54:40;-2.80;99.90
15111;DHT22;7656;51.954;7.998;2022-11-20T02:59:01;-2.80;99.90
15111;DHT22;7656;51.954;7.998;2022-11-20T03:03:22;-2.90;99.90
15111;DHT22;7656;51.954;7.998;2022-11-20T03:07:43;-2.90;99.90
15111;DHT22;7656;51.954;7.998;2022-11-20T03:12:05;-2.80;99.90
15111;DHT22;7656;51.954;7.998;2022-11-20T03:16:26;-2.80;99.90
15111;DHT22;7656;51.954;7.998;2022-11-20T03:20:47;-2.80;99.90
15111;DHT22;7656;51.954;7.998;2022-11-20T03:25:08;-2.80;99.90
15111;DHT22;7656;51.954;7.998;2022-11-20T03:29:29;-2.70;99.90
15111;DHT22;7656;51.954;7.998;2022-11-20T03:33:51;-2.70;99.90
15111;DHT22;7656;51.954;7.998;2022-11-20T03:38:12;-2.80;99.90
15111;DHT22;7656;51.954;7.998;2022-11-20T03:42:33;-2.90;99.90
15111;DHT22;7656;51.954;7.998;2022-11-20T03:47:06;-3.00;99.90
15111;DHT22;7656;51.954;7.998;2022-11-20T03:51:30;-2.90;99.90
15111;DHT22;7656;51.954;7.998;2022-11-20T03:55:52;-2.90;99.90
15111;DHT22;7656;51.954;7.998;2022-11-20T04:00:13;-3.00;99.90
15111;DHT22;7656;51.954;7.998;2022-11-20T04:04:35;-3.10;99.90
15111;DHT22;7656;51.954;7.998;2022-11-20T04:08:57;-3.10;99.90
15111;DHT22;7656;51.954;7.998;2022-11-20T04:13:19;-3.10;99.90
15111;DHT22;7656;51.954;7.998;2022-11-20T04:17:40;-3.10;99.90
15111;DHT22;7656;51.954;7.998;2022-11-20T04:22:01;-3.10;99.90
15111;DHT22;7656;51.954;7.998;2022-11-20T04:26:24;-3.30;99.90
15111;DHT22;7656;51.954;7.998;2022-11-20T04:30:46;-3.20;99.90
15111;DHT22;7656;51.954;7.998;2022-11-20T04:35:07;-3.30;99.90
15111;DHT22;7656;51.954;7.998;2022-11-20T04:39:29;-3.40;99.90
15111;DHT22;7656;51.954;7.998;2022-11-20T04:43:53;-3.30;99.90
15111;DHT22;7656;51.954;7.998;2022-11-20T04:48:20;-3.30;99.90
15111;DHT22;7656;51.954;7.998;2022-11-20T04:52:41;-3.40;99.90
15111;DHT22;7656;51.954;7.998;2022-11-20T04:57:02;-3.40;99.90
15111;DHT22;7656;51.954;7.998;2022-11-20T05:01:24;-3.40;99.90
15111;DHT22;7656;51.954;7.998;2022-11-20T05:05:45;-3.40;99.90
15111;DHT22;7656;51.954;7.998;2022-11-20T05:10:06;-3.50;99.90
15111;DHT22;7656;51.954;7.998;2022-11-20T05:14:28;-3.60;99.90
15111;DHT22;7656;51.954;7.998;2022-11-20T05:18:50;-3.60;99.90
15111;DHT22;7656;51.954;7.998;2022-11-20T05:23:12;-3.60;99.90
15111;DHT22;7656;51.954;7.998;2022-11-20T05:27:33;-3.90;99.90
15111;DHT22;7656;51.954;7.998;2022-11-20T05:31:54;-3.90;99.90
15111;DHT22;7656;51.954;7.998;2022-11-20T05:36:16;-4.10;99.90
15111;DHT22;7656;51.954;7.998;2022-11-20T05:40:38;-4.10;99.90
15111;DHT22;7656;51.954;7.998;2022-11-20T05:45:00;-3.90;99.90
15111;DHT22;7656;51.954;7.998;2022-11-20T05:49:22;-3.80;99.90
15111;DHT22;7656;51.954;7.998;2022-11-20T05:53:44;-3.50;99.90
15111;DHT22;7656;51.954;7.998;2022-11-20T05:58:06;-3.10;99.90
15111;DHT22;7656;51.954;7.998;2022-11-20T06:02:27;-3.30;99.90
15111;DHT22;7656;51.954;7.998;2022-11-20T06:06:48;-3.40;99.90
15111;DHT22;7656;51.954;7.998;2022-11-20T06:11:11;-3.70;99.90
15111;DHT22;7656;51.954;7.998;2022-11-20T06:15:33;-3.40;99.90
15111;DHT22;7656;51.954;7.998;2022-11-20T06:19:54;-2.80;99.90
15111;DHT22;7656;51.954;7.998;2022-11-20T06:24:16;-2.60;99.90
15111;DHT22;7656;51.954;7.998;2022-11-20T06:28:38;-2.40;99.90
15111;DHT22;7656;51.954;7.998;2022-11-20T06:32:59;-2.30;99.90
15111;DHT22;7656;51.954;7.998;2022-11-20T06:37:20;-2.40;99.90
15111;DHT22;7656;51.954;7.998;2022-11-20T06:41:41;-2.20;99.90
15111;DHT22;7656;51.954;7.998;2022-11-20T06:46:02;-2.30;99.90
15111;DHT22;7656;51.954;7.998;2022-11-20T06:50:24;-2.30;99.90
15111;DHT22;7656;51.954;7.998;2022-11-20T06:54:45;-2.20;99.90
15111;DHT22;7656;51.954;7.998;2022-11-20T06:59:06;-2.30;99.90
15111;DHT22;7656;51.954;7.998;2022-11-20T07:03:28;-2.80;99.90
15111;DHT22;7656;51.954;7.998;2022-11-20T07:07:49;-2.70;99.90
15111;DHT22;7656;51.954;7.998;2022-11-20T07:12:10;-2.40;99.90
15111;DHT22;7656;51.954;7.998;2022-11-20T07:16:31;-2.20;99.90
15111;DHT22;7656;51.954;7.998;2022-11-20T07:20:52;-2.20;99.90
15111;DHT22;7656;51.954;7.998;2022-11-20T07:25:13;-2.40;99.90
15111;DHT22;7656;51.954;7.998;2022-11-20T07:29:35;-2.70;99.90
15111;DHT22;7656;51.954;7.998;2022-11-20T07:33:56;-2.50;99.90
15111;DHT22;7656;51.954;7.998;2022-11-20T07:38:17;-2.00;99.90
15111;DHT22;7656;51.954;7.998;2022-11-20T07:42:38;-1.90;99.90
15111;DHT22;7656;51.954;7.998;2022-11-20T07:46:59;-1.60;99.90
15111;DHT22;7656;51.954;7.998;2022-11-20T07:51:20;-1.30;99.90
15111;DHT22;7656;51.954;7.998;2022-11-20T07:55:41;-1.40;99.90
15111;DHT22;7656;51.954;7.998;2022-11-20T08:00:03;-1.60;99.90
15111;DHT22;7656;51.954;7.998;2022-11-20T08:04:33;-1.80;99.90
15111;DHT22;7656;51.954;7.998;2022-11-20T08:08:54;-1.90;99.90
15111;DHT22;7656;51.954;7.998;2022-11-20T08:13:15;-0.60;99.90
15111;DHT22;7656;51.954;7.998;2022-11-20T08:18:06;1.90;99.90
15111;DHT22;7656;51.954;7.998;2022-11-20T08:22:29;4.00;99.90
15111;DHT22;7656;51.954;7.998;2022-11-20T08:26:50;4.30;99.90
15111;DHT22;7656;51.954;7.998;2022-11-20T08:31:11;4.50;99.90
15111;DHT22;7656;51.954;7.998;2022-11-20T08:35:36;3.70;99.90
15111;DHT22;7656;51.954;7.998;2022-11-20T08:39:58;3.90;99.90
15111;DHT22;7656;51.954;7.998;2022-11-20T08:44:19;5.80;99.90
15111;DHT22;7656;51.954;7.998;2022-11-20T08:48:40;6.30;99.90
15111;DHT22;7656;51.954;7.998;2022-11-20T08:53:06;5.00;99.90
15111;DHT22;7656;51.954;7.998;2022-11-20T08:57:27;2.80;99.90
15111;DHT22;7656;51.954;7.998;2022-11-20T09:01:48;1.60;99.90
15111;DHT22;7656;51.954;7.998;2022-11-20T09:06:09;1.40;99.90
15111;DHT22;7656;51.954;7.998;2022-11-20T09:10:30;0.70;99.90
15111;DHT22;7656;51.954;7.998;2022-11-20T09:14:51;0.90;99.90
15111;DHT22;7656;51.954;7.998;2022-11-20T09:19:12;0.60;99.90
15111;DHT22;7656;51.954;7.998;2022-11-20T09:23:35;0.80;99.90
15111;DHT22;7656;51.954;7.998;2022-11-20T09:27:59;1.80;99.90
15111;DHT22;7656;51.954;7.998;2022-11-20T09:32:20;3.40;99.90
15111;DHT22;7656;51.954;7.998;2022-11-20T09:36:41;3.90;99.90
15111;DHT22;7656;51.954;7.998;2022-11-20T09:41:05;2.90;99.90
15111;DHT22;7656;51.954;7.998;2022-11-20T09:45:34;3.60;99.90
15111;DHT22;7656;51.954;7.998;2022-11-20T09:50:35;3.70;99.90
15111;DHT22;7656;51.954;7.998;2022-11-20T09:55:02;4.00;99.90
15111;DHT22;7656;51.954;7.998;2022-11-20T09:59:45;3.30;99.90
15111;DHT22;7656;51.954;7.998;2022-11-20T10:04:16;3.30;99.90
15111;DHT22;7656;51.954;7.998;2022-11-20T10:08:47;3.50;99.90
15111;DHT22;7656;51.954;7.998;2022-11-20T10:32:17;3.70;99.90
15111;DHT22;7656;51.954;7.998;2022-11-20T10:36:49;4.60;99.90
15111;DHT22;7656;51.954;7.998;2022-11-20T10:41:27;4.30;99.90
15111;DHT22;7656;51.954;7.998;2022-11-20T10:45:53;4.50;99.90
15111;DHT22;7656;51.954;7.998;2022-11-20T10:50:21;4.90;99.90
15111;DHT22;7656;51.954;7.998;2022-11-20T11:00:02;4.70;99.90
15111;DHT22;7656;51.954;7.998;2022-11-20T11:04:37;4.30;99.90
15111;DHT22;7656;51.954;7.998;2022-11-20T11:09:10;4.90;99.90
15111;DHT22;7656;51.954;7.998;2022-11-20T11:13:33;4.90;99.90
15111;DHT22;7656;51.954;7.998;2022-11-20T11:17:55;5.50;99.90
15111;DHT22;7656;51.954;7.998;2022-11-20T11:22:18;6.30;99.90
15111;DHT22;7656;51.954;7.998;2022-11-20T11:26:39;6.10;99.90
15111;DHT22;7656;51.954;7.998;2022-11-20T11:31:00;6.20;99.90
15111;DHT22;7656;51.954;7.998;2022-11-20T11:35:27;5.80;99.90
15111;DHT22;7656;51.954;7.998;2022-11-20T11:39:48;4.90;99.90
15111;DHT22;7656;51.954;7.998;2022-11-20T11:44:23;6.30;99.90
15111;DHT22;7656;51.954;7.998;2022-11-20T11:53:27;5.90;99.90
15111;DHT22;7656;51.954;7.998;2022-11-20T11:58:08;5.20;99.90
15111;DHT22;7656;51.954;7.998;2022-11-20T12:07:22;6.30;99.90
15111;DHT22;7656;51.954;7.998;2022-11-20T12:12:12;6.60;99.90
15111;DHT22;7656;51.954;7.998;2022-11-20T12:16:38;5.70;99.90
15111;DHT22;7656;51.954;7.998;2022-11-20T12:25:51;5.70;99.90
15111;DHT22;7656;51.954;7.998;2022-11-20T12:30:18;6.30;99.90
15111;DHT22;7656;51.954;7.998;2022-11-20T12:40:07;6.90;99.90
15111;DHT22;7656;51.954;7.998;2022-11-20T12:49:41;9.90;99.90
15111;DHT22;7656;51.954;7.998;2022-11-20T13:08:57;9.70;99.90
15111;DHT22;7656;51.954;7.998;2022-11-20T13:18:20;9.70;99.90
15111;DHT22;7656;51.954;7.998;2022-11-20T13:22:48;9.50;99.90
15111;DHT22;7656;51.954;7.998;2022-11-20T13:31:35;8.60;99.90
15111;DHT22;7656;51.954;7.998;2022-11-20T13:40:22;9.00;99.90
15111;DHT22;7656;51.954;7.998;2022-11-20T13:45:02;9.10;99.90
15111;DHT22;7656;51.954;7.998;2022-11-20T13:49:34;8.20;99.90
15111;DHT22;7656;51.954;7.998;2022-11-20T14:04:09;5.80;99.90
15111;DHT22;7656;51.954;7.998;2022-11-20T14:09:02;5.40;99.90
15111;DHT22;7656;51.954;7.998;2022-11-20T14:13:23;5.00;99.90
15111;DHT22;7656;51.954;7.998;2022-11-20T14:17:44;4.80;99.90
15111;DHT22;7656;51.954;7.998;2022-11-20T14:22:26;5.00;99.90
15111;DHT22;7656;51.954;7.998;2022-11-20T14:26:48;5.20;99.90
15111;DHT22;7656;51.954;7.998;2022-11-20T14:31:25;4.90;99.90
15111;DHT22;7656;51.954;7.998;2022-11-20T14:35:52;4.40;99.90
15111;DHT22;7656;51.954;7.998;2022-11-20T14:40:27;4.40;99.90
15111;DHT22;7656;51.954;7.998;2022-11-20T14:44:50;4.40;99.90
15111;DHT22;7656;51.954;7.998;2022-11-20T14:49:13;4.30;99.90
15111;DHT22;7656;51.954;7.998;2022-11-20T14:53:34;3.80;99.90
15111;DHT22;7656;51.954;7.998;2022-11-20T14:57:57;3.70;99.90
15111;DHT22;7656;51.954;7.998;2022-11-20T15:02:23;3.80;99.90
15111;DHT22;7656;51.954;7.998;2022-11-20T15:06:54;3.90;99.90
15111;DHT22;7656;51.954;7.998;2022-11-20T15:11:19;3.70;99.90
15111;DHT22;7656;51.954;7.998;2022-11-20T15:15:53;3.70;99.90
15111;DHT22;7656;51.954;7.998;2022-11-20T15:20:17;3.80;99.90
15111;DHT22;7656;51.954;7.998;2022-11-20T15:24:38;4.10;99.90
15111;DHT22;7656;51.954;7.998;2022-11-20T15:28:59;4.10;99.90
15111;DHT22;7656;51.954;7.998;2022-11-20T15:33:20;4.10;99.90
15111;DHT22;7656;51.954;7.998;2022-11-20T15:37:42;4.20;99.90
15111;DHT22;7656;51.954;7.998;2022-11-20T15:42:03;4.20;99.90
15111;DHT22;7656;51.954;7.998;2022-11-20T15:46:27;4.00;99.90
15111;DHT22;7656;51.954;7.998;2022-11-20T15:51:27;3.90;99.90
15111;DHT22;7656;51.954;7.998;2022-11-20T15:55:53;3.60;99.90
15111;DHT22;7656;51.954;7.998;2022-11-20T16:00:14;3.70;99.90
15111;DHT22;7656;51.954;7.998;2022-11-20T16:04:36;3.70;99.90
15111;DHT22;7656;51.954;7.998;2022-11-20T16:08:57;3.90;99.90
15111;DHT22;7656;51.954;7.998;2022-11-20T16:13:18;3.80;99.90
15111;DHT22;7656;51.954;7.998;2022-11-20T16:17:58;3.90;99.90
15111;DHT22;7656;51.954;7.998;2022-11-20T16:22:19;4.10;99.90
15111;DHT22;7656;51.954;7.998;2022-11-20T16:26:40;3.90;99.90
15111;DHT22;7656;51.954;7.998;2022-11-20T16:31:13;3.60;99.90
15111;DHT22;7656;51.954;7.998;2022-11-20T16:35:35;3.50;99.90
15111;DHT22;7656;51.954;7.998;2022-11-20T16:39:56;3.30;99.90
15111;DHT22;7656;51.954;7.998;2022-11-20T16:44:17;3.30;99.90
15111;DHT22;7656;51.954;7.998;2022-11-20T16:48:38;3.40;99.90
15111;DHT22;7656;51.954;7.998;2022-11-20T16:52:59;3.40;99.90
15111;DHT22;7656;51.954;7.998;2022-11-20T16:57:20;3.20;99.90
15111;DHT22;7656;51.954;7.998;2022-11-20T17:01:42;3.00;99.90
15111;DHT22;7656;51.954;7.998;2022-11-20T17:06:14;2.90;99.90
15111;DHT22;7656;51.954;7.998;2022-11-20T17:10:39;2.90;99.90
15111;DHT22;7656;51.954;7.998;2022-11-20T17:15:00;3.10;99.90
15111;DHT22;7656;51.954;7.998;2022-11-20T17:19:21;2.90;99.90
15111;DHT22;7656;51.954;7.998;2022-11-20T17:23:43;2.70;99.90
15111;DHT22;7656;51.954;7.998;2022-11-20T17:28:05;2.60;99.90
15111;DHT22;7656;51.954;7.998;2022-11-20T17:32:27;2.60;99.90
15111;DHT22;7656;51.954;7.998;2022-11-20T17:36:48;2.40;99.90
15111;DHT22;7656;51.954;7.998;2022-11-20T17:41:11;2.40;99.90
15111;DHT22;7656;51.954;7.998;2022-11-20T17:45:35;2.30;99.90
15111;DHT22;7656;51.954;7.998;2022-11-20T17:49:56;2.20;99.90
15111;DHT22;7656;51.954;7.998;2022-11-20T17:54:17;2.10;99.90
15111;DHT22;7656;51.954;7.998;2022-11-20T17:58:38;2.10;99.90
15111;DHT22;7656;51.954;7.998;2022-11-20T18:02:59;2.00;99.90
15111;DHT22;7656;51.954;7.998;2022-11-20T18:07:20;1.80;99.90
15111;DHT22;7656;51.954;7.998;2022-11-20T18:11:42;1.80;99.90
15111;DHT22;7656;51.954;7.998;2022-11-20T18:16:06;2.00;99.90
15111;DHT22;7656;51.954;7.998;2022-11-20T18:20:27;1.90;99.90
15111;DHT22;7656;51.954;7.998;2022-11-20T18:24:48;2.20;99.90
15111;DHT22;7656;51.954;7.998;2022-11-20T18:29:10;2.10;99.90
15111;DHT22;7656;51.954;7.998;2022-11-20T18:33:33;2.00;99.90
15111;DHT22;7656;51.954;7.998;2022-11-20T18:37:54;1.90;99.90
15111;DHT22;7656;51.954;7.998;2022-11-20T18:42:15;2.00;99.90
15111;DHT22;7656;51.954;7.998;2022-11-20T18:46:55;1.90;99.90
15111;DHT22;7656;51.954;7.998;2022-11-20T18:51:16;1.80;99.90
15111;DHT22;7656;51.954;7.998;2022-11-20T18:55:37;1.60;99.90
15111;DHT22;7656;51.954;7.998;2022-11-20T18:59:58;1.60;99.90
15111;DHT22;7656;51.954;7.998;2022-11-20T19:04:20;1.40;99.90
15111;DHT22;7656;51.954;7.998;2022-11-20T19:08:41;1.50;99.90
15111;DHT22;7656;51.954;7.998;2022-11-20T19:13:02;1.60;99.90
15111;DHT22;7656;51.954;7.998;2022-11-20T19:17:24;1.80;99.90
15111;DHT22;7656;51.954;7.998;2022-11-20T19:21:45;1.60;99.90
15111;DHT22;7656;51.954;7.998;2022-11-20T19:26:07;1.70;99.90
15111;DHT22;7656;51.954;7.998;2022-11-20T19:30:28;1.80;99.90
15111;DHT22;7656;51.954;7.998;2022-11-20T19:34:49;2.00;99.90
15111;DHT22;7656;51.954;7.998;2022-11-20T19:39:10;2.10;99.90
15111;DHT22;7656;51.954;7.998;2022-11-20T19:43:32;2.30;99.90
15111;DHT22;7656;51.954;7.998;2022-11-20T19:47:54;2.30;99.90
15111;DHT22;7656;51.954;7.998;2022-11-20T19:52:15;2.40;99.90
15111;DHT22;7656;51.954;7.998;2022-11-20T19:56:36;2.40;99.90
15111;DHT22;7656;51.954;7.998;2022-11-20T20:01:05;2.70;99.90
15111;DHT22;7656;51.954;7.998;2022-11-20T20:05:37;2.60;99.90
15111;DHT22;7656;51.954;7.998;2022-11-20T20:09:58;2.30;99.90
15111;DHT22;7656;51.954;7.998;2022-11-20T20:14:19;2.20;99.90
15111;DHT22;7656;51.954;7.998;2022-11-20T20:18:40;1.70;99.90
15111;DHT22;7656;51.954;7.998;2022-11-20T20:23:01;1.80;99.90
15111;DHT22;7656;51.954;7.998;2022-11-20T20:27:26;2.00;99.90
15111;DHT22;7656;51.954;7.998;2022-11-20T20:31:47;2.00;99.90
15111;DHT22;7656;51.954;7.998;2022-11-20T20:36:10;2.10;99.90
15111;DHT22;7656;51.954;7.998;2022-11-20T20:40:32;2.00;99.90
15111;DHT22;7656;51.954;7.998;2022-11-20T20:44:53;1.90;99.90
15111;DHT22;7656;51.954;7.998;2022-11-20T20:49:26;2.10;99.90
15111;DHT22;7656;51.954;7.998;2022-11-20T20:53:48;2.10;99.90
15111;DHT22;7656;51.954;7.998;2022-11-20T20:58:09;2.30;99.90
15111;DHT22;7656;51.954;7.998;2022-11-20T21:02:30;2.30;99.90
15111;DHT22;7656;51.954;7.998;2022-11-20T21:06:51;2.30;99.90
15111;DHT22;7656;51.954;7.998;2022-11-20T21:11:15;2.40;99.90
15111;DHT22;7656;51.954;7.998;2022-11-20T21:15:40;2.70;99.90
15111;DHT22;7656;51.954;7.998;2022-11-20T21:20:02;2.70;99.90
15111;DHT22;7656;51.954;7.998;2022-11-20T21:24:43;2.60;99.90
15111;DHT22;7656;51.954;7.998;2022-11-20T21:29:04;2.60;99.90
15111;DHT22;7656;51.954;7.998;2022-11-20T21:33:25;2.70;99.90
15111;DHT22;7656;51.954;7.998;2022-11-20T21:37:46;2.80;99.90
15111;DHT22;7656;51.954;7.998;2022-11-20T21:42:07;2.90;99.90
15111;DHT22;7656;51.954;7.998;2022-11-20T21:46:29;3.10;99.90
15111;DHT22;7656;51.954;7.998;2022-11-20T21:50:51;3.10;99.90
15111;DHT22;7656;51.954;7.998;2022-11-20T21:55:12;3.20;99.90
15111;DHT22;7656;51.954;7.998;2022-11-20T21:59:33;3.30;99.90
15111;DHT22;7656;51.954;7.998;2022-11-20T22:03:59;3.40;99.90
15111;DHT22;7656;51.954;7.998;2022-11-20T22:08:22;3.50;99.90
15111;DHT22;7656;51.954;7.998;2022-11-20T22:12:44;3.50;99.90
15111;DHT22;7656;51.954;7.998;2022-11-20T22:17:05;3.40;99.90
15111;DHT22;7656;51.954;7.998;2022-11-20T22:21:33;3.40;99.90
15111;DHT22;7656;51.954;7.998;2022-11-20T22:25:54;3.50;99.90
15111;DHT22;7656;51.954;7.998;2022-11-20T22:30:15;3.50;99.90
15111;DHT22;7656;51.954;7.998;2022-11-20T22:34:36;3.60;99.90
15111;DHT22;7656;51.954;7.998;2022-11-20T22:38:57;3.50;99.90
15111;DHT22;7656;51.954;7.998;2022-11-20T22:43:21;3.50;99.90
15111;DHT22;7656;51.954;7.998;2022-11-20T22:47:42;3.50;99.90
15111;DHT22;7656;51.954;7.998;2022-11-20T22:52:04;3.60;99.90
15111;DHT22;7656;51.954;7.998;2022-11-20T22:56:25;3.60;99.90
15111;DHT22;7656;51.954;7.998;2022-11-20T23:00:46;3.60;99.90
15111;DHT22;7656;51.954;7.998;2022-11-20T23:05:07;3.50;99.90
15111;DHT22;7656;51.954;7.998;2022-11-20T23:09:28;3.50;99.90
15111;DHT22;7656;51.954;7.998;2022-11-20T23:13:54;3.40;99.90
15111;DHT22;7656;51.954;7.998;2022-11-20T23:18:17;3.50;99.90
15111;DHT22;7656;51.954;7.998;2022-11-20T23:22:38;3.30;99.90
15111;DHT22;7656;51.954;7.998;2022-11-20T23:26:59;3.40;99.90
15111;DHT22;7656;51.954;7.998;2022-11-20T23:31:21;3.50;99.90
15111;DHT22;7656;51.954;7.998;2022-11-20T23:35:45;3.30;99.90
15111;DHT22;7656;51.954;7.998;2022-11-20T23:40:07;3.20;99.90
15111;DHT22;7656;51.954;7.998;2022-11-20T23:44:29;3.30;99.90
15111;DHT22;7656;51.954;7.998;2022-11-20T23:48:50;3.30;99.90
15111;DHT22;7656;51.954;7.998;2022-11-20T23:53:11;3.40;99.90
15111;DHT22;7656;51.954;7.998;2022-11-20T23:57:34;3.20;99.90
